Terminal Aerodrome Forecast
Issued by NWS Springfield, MO

Home | Current Version | Previous Version | Text Only | Print | Product List | Glossary On
Versions: 1 2 3 4 5 6 7 8 9 10 11 12 13 14 15 16
071
FTUS43 KSGF 080903 AAA
TAFSGF
TAF AMD
KSGF 080903Z 0809/0906 30015G25KT P6SM OVC050
      TEMPO 0810/0813 6SM -SHSN OVC040
     FM081300 32021G32KT P6SM OVC040
      TEMPO 0814/0818 6SM -SHSN OVC035
     FM081800 32020G32KT P6SM OVC025
     FM090200 32012KT P6SM OVC050=

USA.gov is the U.S. government's official web portal to all federal, state and local government web resources and services.